sensor_id;sensor_type;location;lat;lon;timestamp;P1;durP1;ratioP1;P2;durP2;ratioP2
28481;SDS011;15703;49.588;6.260;2023-09-07T00:00:02;5.95;;;5.45;;
28481;SDS011;15703;49.588;6.260;2023-09-07T00:02:32;7.88;;;5.78;;
28481;SDS011;15703;49.588;6.260;2023-09-07T00:05:00;6.93;;;6.32;;
28481;SDS011;15703;49.588;6.260;2023-09-07T00:07:22;6.50;;;5.75;;
28481;SDS011;15703;49.588;6.260;2023-09-07T00:09:45;7.80;;;6.38;;
28481;SDS011;15703;49.588;6.260;2023-09-07T00:12:08;6.13;;;5.63;;
28481;SDS011;15703;49.588;6.260;2023-09-07T00:14:30;7.93;;;6.13;;
28481;SDS011;15703;49.588;6.260;2023-09-07T00:16:52;6.55;;;5.55;;
28481;SDS011;15703;49.588;6.260;2023-09-07T00:19:15;6.32;;;5.72;;
28481;SDS011;15703;49.588;6.260;2023-09-07T00:21:37;6.82;;;6.00;;
28481;SDS011;15703;49.588;6.260;2023-09-07T00:24:00;5.70;;;5.20;;
28481;SDS011;15703;49.588;6.260;2023-09-07T00:26:26;6.72;;;5.53;;
28481;SDS011;15703;49.588;6.260;2023-09-07T00:28:48;6.97;;;6.37;;
28481;SDS011;15703;49.588;6.260;2023-09-07T00:31:11;7.20;;;6.37;;
28481;SDS011;15703;49.588;6.260;2023-09-07T00:33:34;7.53;;;5.90;;
28481;SDS011;15703;49.588;6.260;2023-09-07T00:35:56;6.55;;;5.65;;
28481;SDS011;15703;49.588;6.260;2023-09-07T00:38:18;6.72;;;6.13;;
28481;SDS011;15703;49.588;6.260;2023-09-07T00:40:44;6.93;;;6.30;;
28481;SDS011;15703;49.588;6.260;2023-09-07T00:43:06;8.40;;;6.33;;
28481;SDS011;15703;49.588;6.260;2023-09-07T00:45:29;7.47;;;6.03;;
28481;SDS011;15703;49.588;6.260;2023-09-07T00:47:51;6.93;;;6.28;;
28481;SDS011;15703;49.588;6.260;2023-09-07T00:50:14;7.03;;;6.37;;
28481;SDS011;15703;49.588;6.260;2023-09-07T00:52:37;7.33;;;6.27;;
28481;SDS011;15703;49.588;6.260;2023-09-07T00:55:02;6.90;;;6.23;;
28481;SDS011;15703;49.588;6.260;2023-09-07T00:57:27;7.00;;;6.40;;
28481;SDS011;15703;49.588;6.260;2023-09-07T00:59:50;6.75;;;6.00;;
28481;SDS011;15703;49.588;6.260;2023-09-07T01:02:13;6.93;;;6.20;;
28481;SDS011;15703;49.588;6.260;2023-09-07T01:04:35;8.82;;;6.53;;
28481;SDS011;15703;49.588;6.260;2023-09-07T01:07:01;8.27;;;7.00;;
28481;SDS011;15703;49.588;6.260;2023-09-07T01:09:26;6.45;;;5.85;;
28481;SDS011;15703;49.588;6.260;2023-09-07T01:11:49;7.97;;;7.17;;
28481;SDS011;15703;49.588;6.260;2023-09-07T01:14:11;6.70;;;6.10;;
28481;SDS011;15703;49.588;6.260;2023-09-07T01:16:33;7.00;;;6.30;;
28481;SDS011;15703;49.588;6.260;2023-09-07T01:18:57;7.17;;;6.57;;
28481;SDS011;15703;49.588;6.260;2023-09-07T01:21:20;7.87;;;6.67;;
28481;SDS011;15703;49.588;6.260;2023-09-07T01:23:43;6.63;;;6.03;;
28481;SDS011;15703;49.588;6.260;2023-09-07T01:26:07;6.50;;;5.90;;
28481;SDS011;15703;49.588;6.260;2023-09-07T01:28:30;7.50;;;6.53;;
28481;SDS011;15703;49.588;6.260;2023-09-07T01:30:52;7.60;;;6.30;;
28481;SDS011;15703;49.588;6.260;2023-09-07T01:33:15;6.73;;;6.00;;
28481;SDS011;15703;49.588;6.260;2023-09-07T01:35:37;7.60;;;6.50;;
28481;SDS011;15703;49.588;6.260;2023-09-07T01:38:00;6.30;;;5.70;;
28481;SDS011;15703;49.588;6.260;2023-09-07T01:40:23;6.80;;;6.10;;
28481;SDS011;15703;49.588;6.260;2023-09-07T01:42:50;6.20;;;5.70;;
28481;SDS011;15703;49.588;6.260;2023-09-07T01:45:12;6.73;;;6.03;;
28481;SDS011;15703;49.588;6.260;2023-09-07T01:47:35;6.73;;;6.00;;
28481;SDS011;15703;49.588;6.260;2023-09-07T01:49:58;9.33;;;6.03;;
28481;SDS011;15703;49.588;6.260;2023-09-07T01:52:20;6.67;;;6.07;;
28481;SDS011;15703;49.588;6.260;2023-09-07T01:54:43;7.37;;;6.37;;
28481;SDS011;15703;49.588;6.260;2023-09-07T01:57:05;7.50;;;6.63;;
28481;SDS011;15703;49.588;6.260;2023-09-07T01:59:28;7.97;;;7.23;;
28481;SDS011;15703;49.588;6.260;2023-09-07T02:01:50;8.97;;;6.80;;
28481;SDS011;15703;49.588;6.260;2023-09-07T02:04:13;7.50;;;6.80;;
28481;SDS011;15703;49.588;6.260;2023-09-07T02:06:35;7.30;;;6.60;;
28481;SDS011;15703;49.588;6.260;2023-09-07T02:08:58;7.93;;;7.13;;
28481;SDS011;15703;49.588;6.260;2023-09-07T02:11:20;9.63;;;6.97;;
28481;SDS011;15703;49.588;6.260;2023-09-07T02:13:45;7.60;;;6.90;;
28481;SDS011;15703;49.588;6.260;2023-09-07T02:16:08;8.63;;;7.73;;
28481;SDS011;15703;49.588;6.260;2023-09-07T02:18:33;7.37;;;6.77;;
28481;SDS011;15703;49.588;6.260;2023-09-07T02:21:00;8.13;;;7.17;;
28481;SDS011;15703;49.588;6.260;2023-09-07T02:23:23;8.47;;;7.40;;
28481;SDS011;15703;49.588;6.260;2023-09-07T02:25:45;7.20;;;6.60;;
28481;SDS011;15703;49.588;6.260;2023-09-07T02:28:08;9.60;;;7.47;;
28481;SDS011;15703;49.588;6.260;2023-09-07T02:30:30;7.30;;;6.60;;
28481;SDS011;15703;49.588;6.260;2023-09-07T02:32:53;8.37;;;7.57;;
28481;SDS011;15703;49.588;6.260;2023-09-07T02:35:16;8.13;;;6.97;;
28481;SDS011;15703;49.588;6.260;2023-09-07T02:37:39;7.77;;;7.00;;
28481;SDS011;15703;49.588;6.260;2023-09-07T02:40:01;8.63;;;7.70;;
28481;SDS011;15703;49.588;6.260;2023-09-07T02:42:28;8.10;;;7.30;;
28481;SDS011;15703;49.588;6.260;2023-09-07T02:44:50;9.47;;;7.30;;
28481;SDS011;15703;49.588;6.260;2023-09-07T02:47:12;8.80;;;7.80;;
28481;SDS011;15703;49.588;6.260;2023-09-07T02:49:35;8.77;;;7.80;;
28481;SDS011;15703;49.588;6.260;2023-09-07T02:51:57;8.73;;;7.50;;
28481;SDS011;15703;49.588;6.260;2023-09-07T02:54:19;8.67;;;7.87;;
28481;SDS011;15703;49.588;6.260;2023-09-07T02:56:42;7.67;;;6.97;;
28481;SDS011;15703;49.588;6.260;2023-09-07T02:59:05;7.97;;;7.27;;
28481;SDS011;15703;49.588;6.260;2023-09-07T03:01:27;7.63;;;6.93;;
28481;SDS011;15703;49.588;6.260;2023-09-07T03:03:50;8.43;;;7.63;;
28481;SDS011;15703;49.588;6.260;2023-09-07T03:06:13;7.50;;;6.70;;
28481;SDS011;15703;49.588;6.260;2023-09-07T03:08:40;7.70;;;7.00;;
28481;SDS011;15703;49.588;6.260;2023-09-07T03:11:06;8.47;;;6.40;;
28481;SDS011;15703;49.588;6.260;2023-09-07T03:13:29;7.70;;;6.90;;
28481;SDS011;15703;49.588;6.260;2023-09-07T03:15:53;7.77;;;7.07;;
28481;SDS011;15703;49.588;6.260;2023-09-07T03:18:15;8.00;;;7.20;;
28481;SDS011;15703;49.588;6.260;2023-09-07T03:20:38;7.67;;;6.90;;
28481;SDS011;15703;49.588;6.260;2023-09-07T03:23:00;7.77;;;6.97;;
28481;SDS011;15703;49.588;6.260;2023-09-07T03:25:23;8.20;;;7.40;;
28481;SDS011;15703;49.588;6.260;2023-09-07T03:27:46;8.17;;;7.37;;
28481;SDS011;15703;49.588;6.260;2023-09-07T03:30:09;8.60;;;7.30;;
28481;SDS011;15703;49.588;6.260;2023-09-07T03:32:35;6.97;;;6.30;;
28481;SDS011;15703;49.588;6.260;2023-09-07T03:35:02;9.97;;;7.30;;
28481;SDS011;15703;49.588;6.260;2023-09-07T03:37:24;7.67;;;6.73;;
28481;SDS011;15703;49.588;6.260;2023-09-07T03:39:46;7.63;;;6.93;;
28481;SDS011;15703;49.588;6.260;2023-09-07T03:42:09;8.70;;;7.30;;
28481;SDS011;15703;49.588;6.260;2023-09-07T03:44:31;7.80;;;7.00;;
28481;SDS011;15703;49.588;6.260;2023-09-07T03:46:53;9.40;;;7.70;;
28481;SDS011;15703;49.588;6.260;2023-09-07T03:49:16;7.97;;;7.20;;
28481;SDS011;15703;49.588;6.260;2023-09-07T03:51:39;10.93;;;7.83;;
28481;SDS011;15703;49.588;6.260;2023-09-07T03:54:02;8.17;;;7.37;;
28481;SDS011;15703;49.588;6.260;2023-09-07T03:56:24;8.30;;;7.50;;
28481;SDS011;15703;49.588;6.260;2023-09-07T03:58:46;10.53;;;7.00;;
28481;SDS011;15703;49.588;6.260;2023-09-07T04:01:09;9.17;;;7.60;;
28481;SDS011;15703;49.588;6.260;2023-09-07T04:03:31;8.27;;;7.47;;
28481;SDS011;15703;49.588;6.260;2023-09-07T04:05:54;8.87;;;7.83;;
28481;SDS011;15703;49.588;6.260;2023-09-07T04:08:17;9.10;;;8.20;;
28481;SDS011;15703;49.588;6.260;2023-09-07T04:10:39;8.57;;;7.67;;
28481;SDS011;15703;49.588;6.260;2023-09-07T04:13:01;8.00;;;7.20;;
28481;SDS011;15703;49.588;6.260;2023-09-07T04:15:24;10.37;;;7.40;;
28481;SDS011;15703;49.588;6.260;2023-09-07T04:17:50;9.33;;;8.03;;
28481;SDS011;15703;49.588;6.260;2023-09-07T04:20:12;8.67;;;7.77;;
28481;SDS011;15703;49.588;6.260;2023-09-07T04:22:35;8.23;;;7.23;;
28481;SDS011;15703;49.588;6.260;2023-09-07T04:24:57;11.17;;;8.00;;
28481;SDS011;15703;49.588;6.260;2023-09-07T04:27:19;9.50;;;8.60;;
28481;SDS011;15703;49.588;6.260;2023-09-07T04:29:42;8.23;;;7.43;;
28481;SDS011;15703;49.588;6.260;2023-09-07T04:32:04;9.03;;;8.13;;
28481;SDS011;15703;49.588;6.260;2023-09-07T04:34:27;11.23;;;8.63;;
28481;SDS011;15703;49.588;6.260;2023-09-07T04:36:49;11.80;;;8.60;;
28481;SDS011;15703;49.588;6.260;2023-09-07T04:39:16;9.60;;;8.20;;
28481;SDS011;15703;49.588;6.260;2023-09-07T04:41:39;10.77;;;7.97;;
28481;SDS011;15703;49.588;6.260;2023-09-07T04:44:02;8.47;;;7.73;;
28481;SDS011;15703;49.588;6.260;2023-09-07T04:46:25;9.40;;;8.40;;
28481;SDS011;15703;49.588;6.260;2023-09-07T04:48:47;9.67;;;8.57;;
28481;SDS011;15703;49.588;6.260;2023-09-07T04:51:10;10.90;;;7.97;;
28481;SDS011;15703;49.588;6.260;2023-09-07T04:53:35;9.67;;;8.20;;
28481;SDS011;15703;49.588;6.260;2023-09-07T04:55:59;9.30;;;8.40;;
28481;SDS011;15703;49.588;6.260;2023-09-07T04:58:21;9.97;;;8.97;;
28481;SDS011;15703;49.588;6.260;2023-09-07T05:00:44;8.70;;;7.90;;
28481;SDS011;15703;49.588;6.260;2023-09-07T05:03:06;9.30;;;8.40;;
28481;SDS011;15703;49.588;6.260;2023-09-07T05:05:29;9.33;;;8.20;;
28481;SDS011;15703;49.588;6.260;2023-09-07T05:07:51;9.60;;;8.70;;
28481;SDS011;15703;49.588;6.260;2023-09-07T05:10:15;10.10;;;9.10;;
28481;SDS011;15703;49.588;6.260;2023-09-07T05:12:38;8.57;;;7.50;;
28481;SDS011;15703;49.588;6.260;2023-09-07T05:15:00;9.93;;;8.30;;
28481;SDS011;15703;49.588;6.260;2023-09-07T05:17:23;9.00;;;8.10;;
28481;SDS011;15703;49.588;6.260;2023-09-07T05:19:46;10.83;;;8.67;;
28481;SDS011;15703;49.588;6.260;2023-09-07T05:22:08;9.87;;;7.57;;
28481;SDS011;15703;49.588;6.260;2023-09-07T05:24:32;10.73;;;8.27;;
28481;SDS011;15703;49.588;6.260;2023-09-07T05:26:55;8.87;;;7.97;;
28481;SDS011;15703;49.588;6.260;2023-09-07T05:29:17;9.13;;;8.23;;
28481;SDS011;15703;49.588;6.260;2023-09-07T05:31:42;9.30;;;8.30;;
28481;SDS011;15703;49.588;6.260;2023-09-07T05:34:05;9.50;;;8.60;;
28481;SDS011;15703;49.588;6.260;2023-09-07T05:36:27;10.23;;;8.50;;
28481;SDS011;15703;49.588;6.260;2023-09-07T05:38:49;9.30;;;8.40;;
28481;SDS011;15703;49.588;6.260;2023-09-07T05:41:15;9.90;;;9.00;;
28481;SDS011;15703;49.588;6.260;2023-09-07T05:43:38;12.83;;;9.33;;
28481;SDS011;15703;49.588;6.260;2023-09-07T05:46:00;10.40;;;9.30;;
28481;SDS011;15703;49.588;6.260;2023-09-07T05:48:23;9.00;;;8.20;;
28481;SDS011;15703;49.588;6.260;2023-09-07T05:50:45;9.70;;;7.60;;
28481;SDS011;15703;49.588;6.260;2023-09-07T05:53:07;8.10;;;7.40;;
28481;SDS011;15703;49.588;6.260;2023-09-07T05:55:30;9.03;;;8.23;;
28481;SDS011;15703;49.588;6.260;2023-09-07T05:57:54;9.37;;;8.27;;
28481;SDS011;15703;49.588;6.260;2023-09-07T06:00:17;8.00;;;7.20;;
28481;SDS011;15703;49.588;6.260;2023-09-07T06:02:40;8.93;;;8.03;;
28481;SDS011;15703;49.588;6.260;2023-09-07T06:05:05;8.67;;;7.73;;
28481;SDS011;15703;49.588;6.260;2023-09-07T06:07:28;8.27;;;7.57;;
28481;SDS011;15703;49.588;6.260;2023-09-07T06:09:51;7.93;;;7.13;;
28481;SDS011;15703;49.588;6.260;2023-09-07T06:12:13;8.40;;;7.60;;
28481;SDS011;15703;49.588;6.260;2023-09-07T06:14:36;8.07;;;7.27;;
28481;SDS011;15703;49.588;6.260;2023-09-07T06:16:59;8.27;;;7.40;;
28481;SDS011;15703;49.588;6.260;2023-09-07T06:19:21;8.73;;;6.90;;
28481;SDS011;15703;49.588;6.260;2023-09-07T06:21:44;10.20;;;6.83;;
28481;SDS011;15703;49.588;6.260;2023-09-07T06:24:07;8.20;;;6.78;;
28481;SDS011;15703;49.588;6.260;2023-09-07T06:26:29;7.67;;;6.80;;
28481;SDS011;15703;49.588;6.260;2023-09-07T06:28:52;6.57;;;5.95;;
28481;SDS011;15703;49.588;6.260;2023-09-07T06:31:14;6.97;;;6.00;;
28481;SDS011;15703;49.588;6.260;2023-09-07T06:33:40;7.40;;;6.45;;
28481;SDS011;15703;49.588;6.260;2023-09-07T06:36:02;6.63;;;6.03;;
28481;SDS011;15703;49.588;6.260;2023-09-07T06:38:26;7.65;;;6.18;;
28481;SDS011;15703;49.588;6.260;2023-09-07T06:40:49;6.53;;;5.72;;
28481;SDS011;15703;49.588;6.260;2023-09-07T06:43:14;6.65;;;5.95;;
28481;SDS011;15703;49.588;6.260;2023-09-07T06:45:36;6.97;;;5.88;;
28481;SDS011;15703;49.588;6.260;2023-09-07T06:47:59;5.55;;;5.05;;
28481;SDS011;15703;49.588;6.260;2023-09-07T06:50:21;6.43;;;5.65;;
28481;SDS011;15703;49.588;6.260;2023-09-07T06:52:44;5.97;;;4.95;;
28481;SDS011;15703;49.588;6.260;2023-09-07T06:55:06;5.82;;;5.20;;
28481;SDS011;15703;49.588;6.260;2023-09-07T06:57:29;6.30;;;4.90;;
28481;SDS011;15703;49.588;6.260;2023-09-07T06:59:51;4.90;;;4.50;;
28481;SDS011;15703;49.588;6.260;2023-09-07T07:02:14;5.60;;;4.43;;
28481;SDS011;15703;49.588;6.260;2023-09-07T07:04:36;5.28;;;3.80;;
28481;SDS011;15703;49.588;6.260;2023-09-07T07:06:59;6.38;;;4.07;;
28481;SDS011;15703;49.588;6.260;2023-09-07T07:09:23;6.32;;;3.80;;
28481;SDS011;15703;49.588;6.260;2023-09-07T07:11:45;4.63;;;3.90;;
28481;SDS011;15703;49.588;6.260;2023-09-07T07:14:07;4.88;;;4.05;;
28481;SDS011;15703;49.588;6.260;2023-09-07T07:16:30;4.03;;;3.58;;
28481;SDS011;15703;49.588;6.260;2023-09-07T07:18:52;4.07;;;3.20;;
28481;SDS011;15703;49.588;6.260;2023-09-07T07:21:15;5.38;;;3.75;;
28481;SDS011;15703;49.588;6.260;2023-09-07T07:23:37;3.97;;;3.63;;
28481;SDS011;15703;49.588;6.260;2023-09-07T07:26:00;4.28;;;3.88;;
28481;SDS011;15703;49.588;6.260;2023-09-07T07:28:22;5.15;;;3.17;;
28481;SDS011;15703;49.588;6.260;2023-09-07T07:30:45;5.25;;;3.83;;
28481;SDS011;15703;49.588;6.260;2023-09-07T07:33:09;4.85;;;3.88;;
28481;SDS011;15703;49.588;6.260;2023-09-07T07:35:34;3.70;;;3.30;;
28481;SDS011;15703;49.588;6.260;2023-09-07T07:37:57;3.78;;;3.47;;
28481;SDS011;15703;49.588;6.260;2023-09-07T07:40:19;3.30;;;2.90;;
28481;SDS011;15703;49.588;6.260;2023-09-07T07:42:42;4.82;;;3.65;;
28481;SDS011;15703;49.588;6.260;2023-09-07T07:45:04;4.60;;;3.40;;
28481;SDS011;15703;49.588;6.260;2023-09-07T07:47:27;5.60;;;3.35;;
28481;SDS011;15703;49.588;6.260;2023-09-07T07:49:49;3.58;;;3.28;;
28481;SDS011;15703;49.588;6.260;2023-09-07T07:52:12;3.50;;;3.20;;
28481;SDS011;15703;49.588;6.260;2023-09-07T07:54:35;4.53;;;2.90;;
28481;SDS011;15703;49.588;6.260;2023-09-07T07:56:59;5.20;;;3.05;;
28481;SDS011;15703;49.588;6.260;2023-09-07T07:59:21;3.67;;;3.22;;
28481;SDS011;15703;49.588;6.260;2023-09-07T08:01:43;3.85;;;2.88;;
28481;SDS011;15703;49.588;6.260;2023-09-07T08:04:06;5.35;;;3.17;;
28481;SDS011;15703;49.588;6.260;2023-09-07T08:06:29;8.60;;;3.88;;
28481;SDS011;15703;49.588;6.260;2023-09-07T08:08:51;3.35;;;3.05;;
28481;SDS011;15703;49.588;6.260;2023-09-07T08:11:14;3.40;;;3.00;;
28481;SDS011;15703;49.588;6.260;2023-09-07T08:13:37;5.80;;;3.35;;
28481;SDS011;15703;49.588;6.260;2023-09-07T08:16:01;4.35;;;3.05;;
28481;SDS011;15703;49.588;6.260;2023-09-07T08:18:24;5.38;;;3.28;;
28481;SDS011;15703;49.588;6.260;2023-09-07T08:20:47;3.88;;;2.70;;
28481;SDS011;15703;49.588;6.260;2023-09-07T08:23:09;4.40;;;3.28;;
28481;SDS011;15703;49.588;6.260;2023-09-07T08:25:33;5.10;;;2.90;;
28481;SDS011;15703;49.588;6.260;2023-09-07T08:27:55;4.75;;;2.95;;
28481;SDS011;15703;49.588;6.260;2023-09-07T08:30:20;4.72;;;3.10;;
28481;SDS011;15703;49.588;6.260;2023-09-07T08:32:46;4.53;;;3.10;;
28481;SDS011;15703;49.588;6.260;2023-09-07T08:35:09;4.63;;;2.70;;
28481;SDS011;15703;49.588;6.260;2023-09-07T08:37:34;3.92;;;3.00;;
28481;SDS011;15703;49.588;6.260;2023-09-07T08:39:56;4.53;;;3.15;;
28481;SDS011;15703;49.588;6.260;2023-09-07T08:42:19;3.28;;;2.97;;
28481;SDS011;15703;49.588;6.260;2023-09-07T08:44:41;3.90;;;3.00;;
28481;SDS011;15703;49.588;6.260;2023-09-07T08:47:07;6.72;;;2.80;;
28481;SDS011;15703;49.588;6.260;2023-09-07T08:49:30;3.75;;;2.80;;
28481;SDS011;15703;49.588;6.260;2023-09-07T08:52:14;3.08;;;2.78;;
28481;SDS011;15703;49.588;6.260;2023-09-07T08:54:37;7.07;;;3.10;;
28481;SDS011;15703;49.588;6.260;2023-09-07T08:57:02;5.45;;;2.78;;
28481;SDS011;15703;49.588;6.260;2023-09-07T08:59:28;4.53;;;3.03;;
28481;SDS011;15703;49.588;6.260;2023-09-07T09:01:55;3.33;;;2.50;;
28481;SDS011;15703;49.588;6.260;2023-09-07T09:04:18;4.30;;;2.40;;
28481;SDS011;15703;49.588;6.260;2023-09-07T09:06:42;5.63;;;2.85;;
28481;SDS011;15703;49.588;6.260;2023-09-07T09:09:05;3.45;;;3.00;;
28481;SDS011;15703;49.588;6.260;2023-09-07T09:11:32;3.08;;;2.78;;
28481;SDS011;15703;49.588;6.260;2023-09-07T09:13:54;2.85;;;2.55;;
28481;SDS011;15703;49.588;6.260;2023-09-07T09:16:16;3.47;;;3.10;;
28481;SDS011;15703;49.588;6.260;2023-09-07T09:18:52;4.72;;;2.67;;
28481;SDS011;15703;49.588;6.260;2023-09-07T09:21:15;5.78;;;2.95;;
28481;SDS011;15703;49.588;6.260;2023-09-07T09:30:42;6.45;;;2.83;;
28481;SDS011;15703;49.588;6.260;2023-09-07T09:33:11;3.60;;;2.38;;
28481;SDS011;15703;49.588;6.260;2023-09-07T09:35:34;3.25;;;2.50;;
28481;SDS011;15703;49.588;6.260;2023-09-07T09:38:00;3.75;;;2.58;;
28481;SDS011;15703;49.588;6.260;2023-09-07T09:40:25;4.50;;;2.58;;
28481;SDS011;15703;49.588;6.260;2023-09-07T09:42:48;4.10;;;2.47;;
28481;SDS011;15703;49.588;6.260;2023-09-07T09:45:11;3.03;;;2.35;;
28481;SDS011;15703;49.588;6.260;2023-09-07T09:47:35;5.30;;;2.97;;
28481;SDS011;15703;49.588;6.260;2023-09-07T09:50:00;2.92;;;2.20;;
28481;SDS011;15703;49.588;6.260;2023-09-07T09:52:27;3.72;;;2.13;;
28481;SDS011;15703;49.588;6.260;2023-09-07T09:54:51;3.95;;;2.90;;
28481;SDS011;15703;49.588;6.260;2023-09-07T09:57:13;3.65;;;2.72;;
28481;SDS011;15703;49.588;6.260;2023-09-07T09:59:36;3.90;;;2.90;;
28481;SDS011;15703;49.588;6.260;2023-09-07T10:01:59;2.90;;;2.60;;
28481;SDS011;15703;49.588;6.260;2023-09-07T10:04:22;4.95;;;2.70;;
28481;SDS011;15703;49.588;6.260;2023-09-07T10:06:55;3.92;;;2.42;;
28481;SDS011;15703;49.588;6.260;2023-09-07T10:09:18;3.13;;;2.38;;
28481;SDS011;15703;49.588;6.260;2023-09-07T10:11:40;3.95;;;2.75;;
28481;SDS011;15703;49.588;6.260;2023-09-07T10:14:03;2.85;;;2.58;;
28481;SDS011;15703;49.588;6.260;2023-09-07T10:16:25;5.05;;;2.80;;
28481;SDS011;15703;49.588;6.260;2023-09-07T10:18:49;2.90;;;2.30;;
28481;SDS011;15703;49.588;6.260;2023-09-07T10:21:11;3.67;;;2.60;;
28481;SDS011;15703;49.588;6.260;2023-09-07T10:23:43;3.33;;;2.45;;
28481;SDS011;15703;49.588;6.260;2023-09-07T10:26:13;4.43;;;2.67;;
28481;SDS011;15703;49.588;6.260;2023-09-07T10:28:35;3.05;;;2.78;;
28481;SDS011;15703;49.588;6.260;2023-09-07T10:31:01;2.88;;;2.28;;
28481;SDS011;15703;49.588;6.260;2023-09-07T10:33:27;2.67;;;2.05;;
28481;SDS011;15703;49.588;6.260;2023-09-07T10:35:50;6.25;;;2.22;;
28481;SDS011;15703;49.588;6.260;2023-09-07T10:38:15;3.70;;;2.40;;
28481;SDS011;15703;49.588;6.260;2023-09-07T10:40:37;5.18;;;2.70;;
28481;SDS011;15703;49.588;6.260;2023-09-07T10:43:01;3.20;;;2.90;;
28481;SDS011;15703;49.588;6.260;2023-09-07T10:45:25;3.50;;;2.85;;
28481;SDS011;15703;49.588;6.260;2023-09-07T10:47:47;3.20;;;2.60;;
28481;SDS011;15703;49.588;6.260;2023-09-07T10:50:10;3.55;;;2.60;;
28481;SDS011;15703;49.588;6.260;2023-09-07T10:52:34;2.83;;;2.47;;
28481;SDS011;15703;49.588;6.260;2023-09-07T10:54:56;5.40;;;2.95;;
28481;SDS011;15703;49.588;6.260;2023-09-07T10:57:19;6.20;;;3.03;;
28481;SDS011;15703;49.588;6.260;2023-09-07T10:59:44;4.70;;;3.05;;
28481;SDS011;15703;49.588;6.260;2023-09-07T11:02:07;7.80;;;2.55;;
28481;SDS011;15703;49.588;6.260;2023-09-07T11:04:30;2.88;;;2.28;;
28481;SDS011;15703;49.588;6.260;2023-09-07T11:06:53;6.15;;;2.60;;
28481;SDS011;15703;49.588;6.260;2023-09-07T11:09:16;5.32;;;2.78;;
28481;SDS011;15703;49.588;6.260;2023-09-07T11:11:45;3.58;;;2.80;;
28481;SDS011;15703;49.588;6.260;2023-09-07T11:14:08;4.70;;;2.92;;
28481;SDS011;15703;49.588;6.260;2023-09-07T11:16:32;2.67;;;2.00;;
28481;SDS011;15703;49.588;6.260;2023-09-07T11:18:55;4.47;;;2.55;;
28481;SDS011;15703;49.588;6.260;2023-09-07T11:21:18;3.33;;;2.42;;
28481;SDS011;15703;49.588;6.260;2023-09-07T11:23:42;5.80;;;3.13;;
28481;SDS011;15703;49.588;6.260;2023-09-07T11:26:06;2.95;;;2.63;;
28481;SDS011;15703;49.588;6.260;2023-09-07T11:28:30;4.85;;;3.13;;
28481;SDS011;15703;49.588;6.260;2023-09-07T11:30:54;8.52;;;2.85;;
28481;SDS011;15703;49.588;6.260;2023-09-07T11:33:17;3.25;;;2.95;;
28481;SDS011;15703;49.588;6.260;2023-09-07T11:35:39;6.28;;;2.70;;
28481;SDS011;15703;49.588;6.260;2023-09-07T11:38:03;6.85;;;2.25;;
28481;SDS011;15703;49.588;6.260;2023-09-07T11:40:27;2.50;;;2.22;;
28481;SDS011;15703;49.588;6.260;2023-09-07T11:42:50;3.42;;;2.50;;
28481;SDS011;15703;49.588;6.260;2023-09-07T11:45:12;2.60;;;2.15;;
28481;SDS011;15703;49.588;6.260;2023-09-07T11:47:35;2.35;;;1.90;;
28481;SDS011;15703;49.588;6.260;2023-09-07T11:49:58;4.53;;;2.60;;
28481;SDS011;15703;49.588;6.260;2023-09-07T11:52:21;5.95;;;2.60;;
28481;SDS011;15703;49.588;6.260;2023-09-07T11:54:43;4.15;;;2.60;;
28481;SDS011;15703;49.588;6.260;2023-09-07T11:57:05;4.53;;;2.13;;
28481;SDS011;15703;49.588;6.260;2023-09-07T11:59:28;2.30;;;2.10;;
28481;SDS011;15703;49.588;6.260;2023-09-07T12:02:04;5.20;;;2.40;;
28481;SDS011;15703;49.588;6.260;2023-09-07T12:04:28;2.30;;;2.10;;
28481;SDS011;15703;49.588;6.260;2023-09-07T12:06:50;3.50;;;2.17;;
28481;SDS011;15703;49.588;6.260;2023-09-07T12:09:12;2.60;;;2.40;;
28481;SDS011;15703;49.588;6.260;2023-09-07T12:11:36;3.60;;;2.15;;
28481;SDS011;15703;49.588;6.260;2023-09-07T12:13:58;3.83;;;2.28;;
28481;SDS011;15703;49.588;6.260;2023-09-07T12:16:21;6.28;;;2.45;;
28481;SDS011;15703;49.588;6.260;2023-09-07T12:18:44;3.47;;;2.30;;
28481;SDS011;15703;49.588;6.260;2023-09-07T12:21:06;5.30;;;2.25;;
28481;SDS011;15703;49.588;6.260;2023-09-07T12:23:29;3.70;;;2.20;;
28481;SDS011;15703;49.588;6.260;2023-09-07T12:25:52;2.88;;;2.13;;
28481;SDS011;15703;49.588;6.260;2023-09-07T12:28:16;3.85;;;2.47;;
28481;SDS011;15703;49.588;6.260;2023-09-07T12:30:38;2.50;;;2.13;;
28481;SDS011;15703;49.588;6.260;2023-09-07T12:33:00;3.10;;;2.10;;
28481;SDS011;15703;49.588;6.260;2023-09-07T12:35:23;2.78;;;2.20;;
28481;SDS011;15703;49.588;6.260;2023-09-07T12:37:45;2.97;;;2.10;;
28481;SDS011;15703;49.588;6.260;2023-09-07T12:40:08;8.77;;;2.45;;
28481;SDS011;15703;49.588;6.260;2023-09-07T12:42:34;2.97;;;2.63;;
28481;SDS011;15703;49.588;6.260;2023-09-07T12:44:57;4.53;;;2.20;;
28481;SDS011;15703;49.588;6.260;2023-09-07T12:47:19;3.55;;;2.38;;
28481;SDS011;15703;49.588;6.260;2023-09-07T12:49:41;3.08;;;2.10;;
28481;SDS011;15703;49.588;6.260;2023-09-07T12:52:03;2.50;;;2.30;;
28481;SDS011;15703;49.588;6.260;2023-09-07T12:54:30;3.90;;;2.60;;
28481;SDS011;15703;49.588;6.260;2023-09-07T12:56:52;6.25;;;2.30;;
28481;SDS011;15703;49.588;6.260;2023-09-07T12:59:14;2.97;;;2.05;;
28481;SDS011;15703;49.588;6.260;2023-09-07T13:01:37;2.33;;;2.00;;
28481;SDS011;15703;49.588;6.260;2023-09-07T13:03:59;3.05;;;2.05;;
28481;SDS011;15703;49.588;6.260;2023-09-07T13:06:21;2.88;;;2.17;;
28481;SDS011;15703;49.588;6.260;2023-09-07T13:08:44;3.30;;;2.22;;
28481;SDS011;15703;49.588;6.260;2023-09-07T13:11:06;3.42;;;2.28;;
28481;SDS011;15703;49.588;6.260;2023-09-07T13:13:28;4.45;;;2.78;;
28481;SDS011;15703;49.588;6.260;2023-09-07T13:15:51;2.47;;;2.22;;
28481;SDS011;15703;49.588;6.260;2023-09-07T13:18:14;2.40;;;2.20;;
28481;SDS011;15703;49.588;6.260;2023-09-07T13:20:36;3.22;;;2.40;;
28481;SDS011;15703;49.588;6.260;2023-09-07T13:22:59;2.83;;;2.63;;
28481;SDS011;15703;49.588;6.260;2023-09-07T13:25:21;2.80;;;2.22;;
28481;SDS011;15703;49.588;6.260;2023-09-07T13:27:44;3.28;;;2.45;;
28481;SDS011;15703;49.588;6.260;2023-09-07T13:30:06;6.07;;;2.47;;
28481;SDS011;15703;49.588;6.260;2023-09-07T13:32:29;2.33;;;2.13;;
28481;SDS011;15703;49.588;6.260;2023-09-07T13:34:53;4.25;;;2.95;;
28481;SDS011;15703;49.588;6.260;2023-09-07T13:37:16;3.33;;;2.08;;
28481;SDS011;15703;49.588;6.260;2023-09-07T13:39:38;2.92;;;2.45;;
28481;SDS011;15703;49.588;6.260;2023-09-07T13:42:01;2.67;;;2.40;;
28481;SDS011;15703;49.588;6.260;2023-09-07T13:44:23;2.78;;;2.53;;
28481;SDS011;15703;49.588;6.260;2023-09-07T13:46:45;4.82;;;2.60;;
28481;SDS011;15703;49.588;6.260;2023-09-07T13:49:08;3.08;;;2.28;;
28481;SDS011;15703;49.588;6.260;2023-09-07T13:51:32;3.45;;;2.20;;
28481;SDS011;15703;49.588;6.260;2023-09-07T13:53:59;2.63;;;2.28;;
28481;SDS011;15703;49.588;6.260;2023-09-07T13:56:21;2.75;;;2.30;;
28481;SDS011;15703;49.588;6.260;2023-09-07T13:58:44;3.38;;;2.35;;
28481;SDS011;15703;49.588;6.260;2023-09-07T14:01:07;3.08;;;2.22;;
28481;SDS011;15703;49.588;6.260;2023-09-07T14:03:29;4.93;;;2.40;;
28481;SDS011;15703;49.588;6.260;2023-09-07T14:05:52;3.92;;;2.15;;
28481;SDS011;15703;49.588;6.260;2023-09-07T14:08:15;3.58;;;2.00;;
28481;SDS011;15703;49.588;6.260;2023-09-07T14:10:38;2.58;;;2.25;;
28481;SDS011;15703;49.588;6.260;2023-09-07T14:13:05;4.95;;;2.10;;
28481;SDS011;15703;49.588;6.260;2023-09-07T14:15:28;3.72;;;2.53;;
28481;SDS011;15703;49.588;6.260;2023-09-07T14:17:51;2.55;;;2.35;;
28481;SDS011;15703;49.588;6.260;2023-09-07T14:20:13;3.30;;;2.08;;
28481;SDS011;15703;49.588;6.260;2023-09-07T14:22:35;3.42;;;2.20;;
28481;SDS011;15703;49.588;6.260;2023-09-07T14:24:57;3.47;;;2.63;;
28481;SDS011;15703;49.588;6.260;2023-09-07T14:27:20;2.95;;;2.55;;
28481;SDS011;15703;49.588;6.260;2023-09-07T14:29:42;3.65;;;2.17;;